createdAt,value
2023-05-18T00:00:18.194Z,0.65
2023-05-18T00:02:48.463Z,0.95
2023-05-18T00:05:18.180Z,0.60
2023-05-18T00:07:47.652Z,0.85
2023-05-18T00:10:16.556Z,0.70
2023-05-18T00:12:45.301Z,0.70
2023-05-18T00:15:13.923Z,0.80
2023-05-18T00:17:44.133Z,0.90
2023-05-18T00:20:13.734Z,0.70
2023-05-18T00:22:42.965Z,1.15
2023-05-18T00:25:11.758Z,0.60
2023-05-18T00:27:40.685Z,0.60
2023-05-18T00:30:10.022Z,0.60
2023-05-18T00:32:38.924Z,0.50
2023-05-18T00:35:10.179Z,0.63
2023-05-18T00:37:38.995Z,0.80
2023-05-18T00:40:09.123Z,0.73
2023-05-18T00:42:37.999Z,0.63
2023-05-18T00:45:07.426Z,0.80
2023-05-18T00:47:36.564Z,0.57
2023-05-18T00:50:06.258Z,0.50
2023-05-18T00:52:37.095Z,0.68
2023-05-18T00:55:06.947Z,0.60
2023-05-18T00:57:36.706Z,1.45
2023-05-18T01:00:07.913Z,0.65
2023-05-18T01:02:42.677Z,0.60
2023-05-18T01:05:12.258Z,0.70
2023-05-18T01:07:43.906Z,0.70
2023-05-18T01:10:15.309Z,0.60
2023-05-18T01:12:47.320Z,0.70
2023-05-18T01:15:17.713Z,0.70
2023-05-18T01:17:50.214Z,0.70
2023-05-18T01:20:25.478Z,0.70
2023-05-18T01:23:20.581Z,0.52
2023-05-18T01:25:55.642Z,0.60
2023-05-18T01:28:27.467Z,0.75
2023-05-18T01:30:56.649Z,0.50
2023-05-18T01:33:25.687Z,0.52
2023-05-18T01:35:54.504Z,0.60
2023-05-18T01:38:25.324Z,0.63
2023-05-18T01:40:58.328Z,0.93
2023-05-18T01:43:33.520Z,0.70
2023-05-18T01:46:05.315Z,0.75
2023-05-18T01:48:36.653Z,0.73
2023-05-18T01:51:06.247Z,0.70
2023-05-18T01:53:38.631Z,0.80
2023-05-18T01:56:09.010Z,0.68
2023-05-18T01:58:39.432Z,0.70
2023-05-18T02:01:08.690Z,0.68
2023-05-18T02:03:37.599Z,0.88
2023-05-18T02:06:06.458Z,0.70
2023-05-18T02:08:35.681Z,0.80
2023-05-18T02:11:04.746Z,0.70
2023-05-18T02:13:33.507Z,0.80
2023-05-18T02:16:05.175Z,0.80
2023-05-18T02:18:36.285Z,0.80
2023-05-18T02:21:05.382Z,0.85
2023-05-18T02:23:34.391Z,0.80
2023-05-18T02:26:03.638Z,1.00
2023-05-18T02:28:32.406Z,0.80
2023-05-18T02:31:09.449Z,1.00
2023-05-18T02:33:40.191Z,0.80
2023-05-18T02:36:10.124Z,0.90
2023-05-18T02:38:39.579Z,0.75
2023-05-18T02:41:08.648Z,0.80
2023-05-18T02:43:37.650Z,0.80
2023-05-18T02:46:06.452Z,1.00
2023-05-18T02:48:37.302Z,1.58
2023-05-18T02:51:06.241Z,0.80
2023-05-18T02:53:35.815Z,0.73
2023-05-18T02:56:10.549Z,0.90
2023-05-18T02:58:47.841Z,0.90
2023-05-18T03:01:26.869Z,0.80
2023-05-18T03:03:57.870Z,0.85
2023-05-18T03:06:27.519Z,0.90
2023-05-18T03:08:57.495Z,0.95
2023-05-18T03:11:36.080Z,1.00
2023-05-18T03:14:05.355Z,0.73
2023-05-18T03:16:34.171Z,0.93
2023-05-18T03:19:04.328Z,0.82
2023-05-18T03:21:37.723Z,1.00
2023-05-18T03:24:07.608Z,0.98
2023-05-18T03:26:41.917Z,0.80
2023-05-18T03:29:11.379Z,0.70
2023-05-18T03:31:40.259Z,0.95
2023-05-18T03:34:11.231Z,0.93
2023-05-18T03:36:40.147Z,0.70
2023-05-18T03:39:09.946Z,0.93
2023-05-18T03:41:39.311Z,1.00
2023-05-18T03:44:08.058Z,0.80
2023-05-18T03:46:37.021Z,1.05
2023-05-18T03:49:07.849Z,0.68
2023-05-18T03:51:42.369Z,0.80
2023-05-18T03:54:11.250Z,1.02
2023-05-18T03:56:40.030Z,1.08
2023-05-18T03:59:09.362Z,0.90
2023-05-18T04:01:38.296Z,0.80
2023-05-18T04:04:07.412Z,1.00
2023-05-18T04:06:37.360Z,0.80
2023-05-18T04:09:07.642Z,0.90
2023-05-18T04:11:36.610Z,1.05
2023-05-18T04:14:10.595Z,0.90
2023-05-18T04:16:39.374Z,0.93
2023-05-18T04:19:08.853Z,0.95
2023-05-18T04:21:38.078Z,1.08
2023-05-18T04:24:08.793Z,0.90
2023-05-18T04:26:38.637Z,0.70
2023-05-18T04:29:07.840Z,0.80
2023-05-18T04:31:37.282Z,0.88
2023-05-18T04:34:07.038Z,0.80
2023-05-18T04:36:36.113Z,0.70
2023-05-18T04:39:07.974Z,0.90
2023-05-18T04:41:38.452Z,0.70
2023-05-18T04:44:07.476Z,1.00
2023-05-18T04:46:39.741Z,0.90
2023-05-18T04:49:11.775Z,0.70
2023-05-18T04:51:42.147Z,0.80
2023-05-18T04:54:10.840Z,0.60
2023-05-18T04:56:41.047Z,0.60
2023-05-18T04:59:10.888Z,0.85
2023-05-18T05:01:39.745Z,0.90
2023-05-18T05:04:08.441Z,0.93
2023-05-18T05:06:37.692Z,0.82
2023-05-18T05:09:06.646Z,0.90
2023-05-18T05:11:35.561Z,0.77
2023-05-18T05:14:05.703Z,1.00
2023-05-18T05:16:34.461Z,0.90
2023-05-18T05:19:03.443Z,1.00
2023-05-18T05:21:32.696Z,0.75
2023-05-18T05:24:04.856Z,0.90
2023-05-18T05:26:34.110Z,0.88
2023-05-18T05:29:02.803Z,0.98
2023-05-18T05:31:34.641Z,1.10
2023-05-18T05:34:03.659Z,0.98
2023-05-18T05:36:33.841Z,1.00
2023-05-18T05:39:02.689Z,0.80
2023-05-18T05:41:32.409Z,0.90
2023-05-18T05:44:02.234Z,0.95
2023-05-18T05:46:31.025Z,1.02
2023-05-18T05:49:04.132Z,0.70
2023-05-18T05:51:32.875Z,0.70
2023-05-18T05:54:01.943Z,0.82
2023-05-18T05:56:31.598Z,0.82
2023-05-18T05:59:00.276Z,0.90
2023-05-18T06:01:29.208Z,0.60
2023-05-18T06:03:58.358Z,1.20
2023-05-18T06:06:28.739Z,0.85
2023-05-18T06:08:57.671Z,0.90
2023-05-18T06:11:27.177Z,0.82
2023-05-18T06:13:56.394Z,0.80
2023-05-18T06:16:25.290Z,0.90
2023-05-18T06:18:54.813Z,0.93
2023-05-18T06:21:23.740Z,1.25
2023-05-18T06:23:53.959Z,0.80
2023-05-18T06:26:36.680Z,0.80
2023-05-18T06:29:28.339Z,0.80
2023-05-18T06:32:15.533Z,0.80
2023-05-18T06:34:47.402Z,0.90
2023-05-18T06:37:16.208Z,0.80
2023-05-18T06:39:46.421Z,0.80
2023-05-18T06:42:15.238Z,1.00
2023-05-18T06:44:53.820Z,0.75
2023-05-18T06:47:45.026Z,0.90
2023-05-18T06:50:13.936Z,0.85
2023-05-18T06:52:42.712Z,1.00
2023-05-18T06:55:13.429Z,0.70
2023-05-18T06:57:42.496Z,0.70
2023-05-18T07:00:12.597Z,0.80
2023-05-18T07:02:43.405Z,0.85
2023-05-18T07:05:12.719Z,1.00
2023-05-18T07:07:41.646Z,0.70
2023-05-18T07:10:10.963Z,1.00
2023-05-18T07:12:41.157Z,0.70
2023-05-18T07:15:11.597Z,0.98
2023-05-18T07:17:40.465Z,0.65
2023-05-18T07:20:10.260Z,1.25
2023-05-18T07:22:39.371Z,0.82
2023-05-18T07:25:08.237Z,0.80
2023-05-18T07:27:37.005Z,0.93
2023-05-18T07:30:08.069Z,0.82
2023-05-18T07:32:36.784Z,0.90
2023-05-18T07:35:05.603Z,0.75
2023-05-18T07:37:34.446Z,0.70
2023-05-18T07:40:05.089Z,0.80
2023-05-18T07:42:34.265Z,0.80
2023-05-18T07:45:02.925Z,0.73
2023-05-18T07:47:33.250Z,0.55
2023-05-18T07:50:02.012Z,0.75
2023-05-18T07:52:31.076Z,0.80
2023-05-18T07:54:59.914Z,0.75
2023-05-18T07:57:30.636Z,0.80
2023-05-18T07:59:59.387Z,0.70
2023-05-18T08:02:28.174Z,0.93
2023-05-18T08:04:58.385Z,1.10
2023-05-18T08:07:27.131Z,0.80
2023-05-18T08:09:55.808Z,0.80
2023-05-18T08:12:24.590Z,0.80
2023-05-18T08:14:53.247Z,0.85
2023-05-18T08:17:21.953Z,0.70
2023-05-18T08:19:50.741Z,0.95
2023-05-18T08:22:21.235Z,0.77
2023-05-18T08:24:50.306Z,0.90
2023-05-18T08:27:20.063Z,0.80
2023-05-18T08:29:48.804Z,1.13
2023-05-18T08:32:17.632Z,0.85
2023-05-18T08:34:46.744Z,0.80
2023-05-18T08:37:15.449Z,0.60
2023-05-18T08:39:46.271Z,0.80
2023-05-18T08:42:18.754Z,0.70
2023-05-18T08:44:48.494Z,0.88
2023-05-18T08:47:17.663Z,0.70
2023-05-18T08:49:46.798Z,0.80
2023-05-18T08:52:19.852Z,0.80
2023-05-18T08:54:51.899Z,0.57
2023-05-18T08:57:22.644Z,0.60
2023-05-18T08:59:51.691Z,0.80
2023-05-18T09:02:20.415Z,0.88
2023-05-18T09:04:49.795Z,0.70
2023-05-18T09:07:19.246Z,0.65
2023-05-18T09:09:48.595Z,0.60
2023-05-18T09:12:18.687Z,0.80
2023-05-18T09:14:48.359Z,0.60
2023-05-18T09:17:17.173Z,0.70
2023-05-18T09:19:46.294Z,0.60
2023-05-18T09:22:15.275Z,0.90
2023-05-18T09:24:43.996Z,0.98
2023-05-18T09:27:13.073Z,0.70
2023-05-18T09:29:55.268Z,0.82
2023-05-18T09:32:24.174Z,0.60
2023-05-18T09:34:53.175Z,0.90
2023-05-18T09:37:22.957Z,0.90
2023-05-18T09:40:00.445Z,0.70
2023-05-18T09:42:29.629Z,0.77
2023-05-18T09:44:59.726Z,0.80
2023-05-18T09:47:29.504Z,0.85
2023-05-18T09:49:59.188Z,0.70
2023-05-18T09:52:27.878Z,0.80
2023-05-18T09:55:01.208Z,0.60
2023-05-18T09:57:29.933Z,0.88
2023-05-18T10:00:10.698Z,0.98
2023-05-18T10:02:41.487Z,0.88
2023-05-18T10:05:20.767Z,0.70
2023-05-18T10:07:49.752Z,0.70
2023-05-18T10:10:20.145Z,1.00
2023-05-18T10:12:49.490Z,0.70
2023-05-18T10:15:20.847Z,0.77
2023-05-18T10:17:51.023Z,0.70
2023-05-18T10:20:21.073Z,0.85
2023-05-18T10:22:50.274Z,0.93
2023-05-18T10:25:21.034Z,0.70
2023-05-18T10:27:50.335Z,0.80
2023-05-18T10:30:22.986Z,0.90
2023-05-18T10:32:52.979Z,0.77
2023-05-18T10:35:23.860Z,0.77
2023-05-18T10:37:53.577Z,0.80
2023-05-18T10:40:23.226Z,0.82
2023-05-18T10:42:53.055Z,0.77
2023-05-18T10:45:23.302Z,0.73
2023-05-18T10:47:55.199Z,0.80
2023-05-18T10:50:24.840Z,0.90
2023-05-18T10:52:54.019Z,1.02
2023-05-18T10:55:22.898Z,1.00
2023-05-18T10:57:53.662Z,0.90
2023-05-18T11:00:23.837Z,0.80
2023-05-18T11:02:53.014Z,0.90
2023-05-18T11:05:26.028Z,0.98
2023-05-18T11:08:03.347Z,0.90
2023-05-18T11:10:36.200Z,0.88
2023-05-18T11:13:07.125Z,1.08
2023-05-18T11:15:54.339Z,0.80
2023-05-18T11:18:28.557Z,0.80
2023-05-18T11:20:57.295Z,0.80
2023-05-18T11:23:25.996Z,0.95
2023-05-18T11:25:54.947Z,0.80
2023-05-18T11:28:24.445Z,0.70
2023-05-18T11:30:53.202Z,0.90
2023-05-18T11:33:27.472Z,0.70
2023-05-18T11:35:56.767Z,0.88
2023-05-18T11:38:26.042Z,0.90
2023-05-18T11:40:54.873Z,0.80
2023-05-18T11:43:23.804Z,0.93
2023-05-18T11:45:58.715Z,0.80
2023-05-18T11:48:31.003Z,1.20
2023-05-18T11:51:00.123Z,0.93
2023-05-18T11:53:29.098Z,0.90
2023-05-18T11:55:57.927Z,0.80
2023-05-18T11:58:27.043Z,0.90
2023-05-18T12:00:57.763Z,0.80
2023-05-18T12:03:28.121Z,0.80
2023-05-18T12:06:02.191Z,0.77
2023-05-18T12:08:31.138Z,0.80
2023-05-18T12:11:02.425Z,0.82
2023-05-18T12:13:31.174Z,0.80
2023-05-18T12:16:00.041Z,0.90
2023-05-18T12:18:30.840Z,1.10
2023-05-18T12:21:00.973Z,0.80
2023-05-18T12:23:38.300Z,1.02
2023-05-18T12:26:07.391Z,0.90
2023-05-18T12:28:36.652Z,1.00
2023-05-18T12:31:08.490Z,1.00
2023-05-18T12:33:37.373Z,0.93
2023-05-18T12:36:11.915Z,0.73
2023-05-18T12:38:40.756Z,1.23
2023-05-18T12:41:09.884Z,0.98
2023-05-18T12:43:38.576Z,0.80
2023-05-18T12:46:07.541Z,0.80
2023-05-18T12:48:39.713Z,0.88
2023-05-18T12:51:19.345Z,0.80
2023-05-18T12:53:48.182Z,1.00
2023-05-18T12:56:18.260Z,0.80
2023-05-18T12:59:00.067Z,0.70
2023-05-18T13:01:28.893Z,1.00
2023-05-18T13:03:59.038Z,1.05
2023-05-18T13:06:29.276Z,0.90
2023-05-18T13:08:57.927Z,0.80
2023-05-18T13:11:27.743Z,0.90
2023-05-18T13:13:59.989Z,0.90
2023-05-18T13:16:30.341Z,1.00
2023-05-18T13:19:00.004Z,0.90
2023-05-18T13:21:30.693Z,0.90
2023-05-18T13:23:59.468Z,0.80
2023-05-18T13:26:28.252Z,1.00
2023-05-18T13:28:57.719Z,0.90
2023-05-18T13:31:26.503Z,0.80
2023-05-18T13:33:55.352Z,0.95
2023-05-18T13:36:24.164Z,0.90
2023-05-18T13:38:54.316Z,0.90
2023-05-18T13:41:23.070Z,0.93
2023-05-18T13:43:51.798Z,0.85
2023-05-18T13:46:20.684Z,0.98
2023-05-18T13:48:49.473Z,0.80
2023-05-18T13:51:18.263Z,0.80
2023-05-18T13:53:46.962Z,1.00
2023-05-18T13:56:17.393Z,0.98
2023-05-18T13:58:46.107Z,0.90
2023-05-18T14:01:14.893Z,0.90
2023-05-18T14:03:43.964Z,0.80
2023-05-18T14:06:12.567Z,0.90
2023-05-18T14:08:41.164Z,0.70
2023-05-18T14:11:09.940Z,0.70
2023-05-18T14:13:39.949Z,0.90
2023-05-18T14:16:09.017Z,0.93
2023-05-18T14:18:37.820Z,0.75
2023-05-18T14:21:06.683Z,0.80
2023-05-18T14:23:35.673Z,0.82
2023-05-18T14:26:04.329Z,1.00
2023-05-18T14:28:32.998Z,0.82
2023-05-18T14:31:03.169Z,1.20
2023-05-18T14:33:31.894Z,1.17
2023-05-18T14:36:00.867Z,0.90
2023-05-18T14:38:29.576Z,1.05
2023-05-18T14:40:58.361Z,0.80
2023-05-18T14:43:27.038Z,0.90
2023-05-18T14:46:07.317Z,0.88
2023-05-18T14:48:38.536Z,0.80
2023-05-18T14:51:07.251Z,1.27
2023-05-18T14:53:36.021Z,0.73
2023-05-18T14:56:08.490Z,0.95
2023-05-18T14:58:37.826Z,0.90
2023-05-18T15:01:07.143Z,0.90
2023-05-18T15:03:36.027Z,1.02
2023-05-18T15:06:06.355Z,0.90
2023-05-18T15:08:35.137Z,0.82
2023-05-18T15:11:03.830Z,0.80
2023-05-18T15:13:32.992Z,0.80
2023-05-18T15:16:01.815Z,0.93
2023-05-18T15:18:30.599Z,0.75
2023-05-18T15:20:59.346Z,1.00
2023-05-18T15:23:29.377Z,0.90
2023-05-18T15:25:58.104Z,0.80
2023-05-18T15:28:26.822Z,0.75
2023-05-18T15:30:55.533Z,0.80
2023-05-18T15:33:24.283Z,0.80
2023-05-18T15:35:52.956Z,1.20
2023-05-18T15:38:21.788Z,1.10
2023-05-18T15:40:52.022Z,1.30
2023-05-18T15:43:21.450Z,1.38
2023-05-18T15:45:50.217Z,0.90
2023-05-18T15:48:18.958Z,1.08
2023-05-18T15:50:47.659Z,0.80
2023-05-18T15:53:16.650Z,1.08
2023-05-18T15:55:45.379Z,0.90
2023-05-18T15:58:16.147Z,0.90
2023-05-18T16:00:45.842Z,1.00
2023-05-18T16:03:15.091Z,0.77
2023-05-18T16:05:44.237Z,0.90
2023-05-18T16:08:12.915Z,1.13
2023-05-18T16:10:41.568Z,0.80
2023-05-18T16:13:10.339Z,0.90
2023-05-18T16:15:40.370Z,0.80
2023-05-18T16:18:09.172Z,0.80
2023-05-18T16:20:38.373Z,1.05
2023-05-18T16:23:07.031Z,0.80
2023-05-18T16:25:35.673Z,0.93
2023-05-18T16:28:04.333Z,0.95
2023-05-18T16:30:33.303Z,1.00
2023-05-18T16:33:03.658Z,0.90
2023-05-18T16:35:32.344Z,0.93
2023-05-18T16:38:01.029Z,1.00
2023-05-18T16:40:29.825Z,1.00
2023-05-18T16:42:58.916Z,0.90
2023-05-18T16:45:28.059Z,1.00
2023-05-18T16:47:56.875Z,1.00
2023-05-18T16:50:27.855Z,0.75
2023-05-18T16:52:56.526Z,0.95
2023-05-18T16:55:25.873Z,0.73
2023-05-18T16:57:54.826Z,0.73
2023-05-18T17:00:23.892Z,0.80
2023-05-18T17:02:53.436Z,0.90
2023-05-18T17:05:23.492Z,0.80
2023-05-18T17:07:54.518Z,0.90
2023-05-18T17:10:23.105Z,1.00
2023-05-18T17:12:51.847Z,0.98
2023-05-18T17:15:20.582Z,1.20
2023-05-18T17:17:49.258Z,0.90
2023-05-18T17:20:17.934Z,1.00
2023-05-18T17:22:46.664Z,1.00
2023-05-18T17:25:16.636Z,1.08
2023-05-18T17:27:45.378Z,1.05
2023-05-18T17:30:14.195Z,0.90
2023-05-18T17:32:44.695Z,1.08
2023-05-18T17:35:14.424Z,1.00
2023-05-18T17:37:43.371Z,1.10
2023-05-18T17:40:12.345Z,0.90
2023-05-18T17:42:42.437Z,0.93
2023-05-18T17:45:11.863Z,0.90
2023-05-18T17:47:41.793Z,0.90
2023-05-18T17:50:11.587Z,1.00
2023-05-18T17:52:40.302Z,1.50
2023-05-18T17:55:09.735Z,1.15
2023-05-18T17:57:46.600Z,1.02
2023-05-18T18:00:17.698Z,1.00
2023-05-18T18:02:46.732Z,1.00
2023-05-18T18:05:15.448Z,1.23
2023-05-18T18:07:44.203Z,1.42
2023-05-18T18:10:13.085Z,1.35
2023-05-18T18:12:41.906Z,1.10
2023-05-18T18:15:11.364Z,1.20
2023-05-18T18:17:41.539Z,1.02
2023-05-18T18:20:10.795Z,1.58
2023-05-18T18:22:39.661Z,1.40
2023-05-18T18:25:08.607Z,1.35
2023-05-18T18:27:37.478Z,1.00
2023-05-18T18:30:06.583Z,1.20
2023-05-18T18:32:35.268Z,1.33
2023-05-18T18:35:05.697Z,0.93
2023-05-18T18:37:34.500Z,1.17
2023-05-18T18:40:03.986Z,1.35
2023-05-18T18:42:32.732Z,0.90
2023-05-18T18:45:01.461Z,1.10
2023-05-18T18:47:30.492Z,1.15
2023-05-18T18:49:59.278Z,0.93
2023-05-18T18:52:29.417Z,0.90
2023-05-18T18:54:58.392Z,1.15
2023-05-18T18:57:27.099Z,1.25
2023-05-18T18:59:56.316Z,1.83
2023-05-18T19:02:25.079Z,1.10
2023-05-18T19:04:53.885Z,1.10
2023-05-18T19:07:22.582Z,1.08
2023-05-18T19:09:52.681Z,1.15
2023-05-18T19:12:21.500Z,1.00
2023-05-18T19:14:50.146Z,1.17
2023-05-18T19:17:18.901Z,1.10
2023-05-18T19:19:47.545Z,1.30
2023-05-18T19:22:16.306Z,1.30
2023-05-18T19:24:45.376Z,1.42
2023-05-18T19:27:15.475Z,1.52
2023-05-18T19:29:44.329Z,1.35
2023-05-18T19:32:13.091Z,1.40
2023-05-18T19:34:41.854Z,0.90
2023-05-18T19:37:10.572Z,1.00
2023-05-18T19:39:39.403Z,0.80
2023-05-18T19:42:08.212Z,0.90
2023-05-18T19:44:38.402Z,1.10
2023-05-18T19:47:07.631Z,1.02
2023-05-18T19:49:36.534Z,1.38
2023-05-18T19:52:08.291Z,1.10
2023-05-18T19:54:37.230Z,0.90
2023-05-18T19:57:06.205Z,1.10
2023-05-18T19:59:34.910Z,1.23
2023-05-18T20:02:05.702Z,1.15
2023-05-18T20:04:34.698Z,1.23
2023-05-18T20:07:03.426Z,1.10
2023-05-18T20:09:32.300Z,1.23
2023-05-18T20:12:02.857Z,1.38
2023-05-18T20:14:33.364Z,1.17
2023-05-18T20:17:02.219Z,0.80
2023-05-18T20:19:32.394Z,0.95
2023-05-18T20:22:01.168Z,1.30
2023-05-18T20:24:30.346Z,1.30
2023-05-18T20:26:59.091Z,1.10
2023-05-18T20:29:28.050Z,1.08
2023-05-18T20:31:56.821Z,1.15
2023-05-18T20:34:25.767Z,1.20
2023-05-18T20:36:56.504Z,1.40
2023-05-18T20:39:26.121Z,1.20
2023-05-18T20:41:54.834Z,1.73
2023-05-18T20:44:25.005Z,1.10
2023-05-18T20:46:54.366Z,1.20
2023-05-18T20:49:24.874Z,1.00
2023-05-18T20:51:53.619Z,1.00
2023-05-18T20:54:23.630Z,1.10
2023-05-18T20:56:52.451Z,1.25
2023-05-18T20:59:21.553Z,1.10
2023-05-18T21:01:51.104Z,1.23
2023-05-18T21:04:20.010Z,1.10
2023-05-18T21:06:49.283Z,1.23
2023-05-18T21:09:18.955Z,1.05
2023-05-18T21:11:49.135Z,1.27
2023-05-18T21:14:18.325Z,1.25
2023-05-18T21:16:47.117Z,1.75
2023-05-18T21:19:16.477Z,1.10
2023-05-18T21:21:45.258Z,1.48
2023-05-18T21:24:14.181Z,1.23
2023-05-18T21:26:43.084Z,1.38
2023-05-18T21:29:13.339Z,1.50
2023-05-18T21:31:42.156Z,1.30
2023-05-18T21:34:10.900Z,1.30
2023-05-18T21:36:39.669Z,1.40
2023-05-18T21:39:09.801Z,1.10
2023-05-18T21:41:40.450Z,1.25
2023-05-18T21:44:09.197Z,2.15
2023-05-18T21:46:39.285Z,1.80
2023-05-18T21:49:08.458Z,1.58
2023-05-18T21:51:37.673Z,2.45
2023-05-18T21:54:06.430Z,3.00
2023-05-18T21:56:36.868Z,3.00
2023-05-18T21:59:05.710Z,3.03
2023-05-18T22:01:34.483Z,3.45
2023-05-18T22:04:04.811Z,2.92
2023-05-18T22:06:33.634Z,3.42
2023-05-18T22:09:02.428Z,2.63
2023-05-18T22:11:31.144Z,2.63
2023-05-18T22:13:59.819Z,2.90
2023-05-18T22:16:28.715Z,2.08
2023-05-18T22:18:57.425Z,2.40
2023-05-18T22:21:27.625Z,1.83
2023-05-18T22:23:56.323Z,1.60
2023-05-18T22:26:25.019Z,1.65
2023-05-18T22:28:53.729Z,1.70
2023-05-18T22:31:22.510Z,1.85
2023-05-18T22:33:53.962Z,2.47
2023-05-18T22:36:23.346Z,1.65
2023-05-18T22:38:53.346Z,1.67
2023-05-18T22:41:22.554Z,1.75
2023-05-18T22:43:51.274Z,1.70
2023-05-18T22:46:20.834Z,1.65
2023-05-18T22:48:49.599Z,1.52
2023-05-18T22:51:18.773Z,1.40
2023-05-18T22:53:47.608Z,1.60
2023-05-18T22:56:21.044Z,2.28
2023-05-18T22:58:49.977Z,1.90
2023-05-18T23:01:18.798Z,2.28
2023-05-18T23:03:47.533Z,1.92
2023-05-18T23:06:16.255Z,1.35
2023-05-18T23:08:44.982Z,1.63
2023-05-18T23:11:13.769Z,2.42
2023-05-18T23:13:43.953Z,1.90
2023-05-18T23:16:12.837Z,1.83
2023-05-18T23:18:41.590Z,1.70
2023-05-18T23:21:10.535Z,1.80
2023-05-18T23:23:39.370Z,1.50
2023-05-18T23:26:09.213Z,1.60
2023-05-18T23:28:37.875Z,1.60
2023-05-18T23:31:07.979Z,1.40
2023-05-18T23:33:36.905Z,1.67
2023-05-18T23:36:07.299Z,1.60
2023-05-18T23:38:37.766Z,1.40
2023-05-18T23:41:06.829Z,1.40
2023-05-18T23:43:35.922Z,1.75
2023-05-18T23:46:05.125Z,1.10
2023-05-18T23:48:35.949Z,1.52
2023-05-18T23:51:05.251Z,1.35
2023-05-18T23:53:34.381Z,1.38
2023-05-18T23:56:03.809Z,1.20
2023-05-18T23:58:33.528Z,1.63
